createdAt,value
2019-04-20T00:02:19.331Z,66.44
2019-04-20T00:04:46.940Z,68.25
2019-04-20T00:07:14.300Z,67.99
2019-04-20T00:09:50.249Z,68.48
2019-04-20T00:12:19.046Z,69.49
2019-04-20T00:14:41.297Z,67.44
2019-04-20T00:17:07.660Z,68.93
2019-04-20T00:19:43.599Z,67.65
2019-04-20T00:22:10.111Z,65.50
2019-04-20T00:27:31.327Z,64.61
2019-04-20T00:29:56.113Z,69.17
2019-04-20T00:32:18.591Z,70.05
2019-04-20T00:34:39.046Z,71.56
2019-04-20T00:37:05.172Z,69.61
2019-04-20T00:39:32.232Z,69.68
2019-04-20T00:42:06.131Z,70.41
2019-04-20T00:44:34.128Z,69.41
2019-04-20T00:47:11.178Z,68.59
2019-04-20T00:49:43.260Z,71.43
2019-04-20T00:52:23.746Z,70.29
2019-04-20T00:54:24.179Z,72.45
2019-04-20T00:56:52.046Z,72.51
2019-04-20T00:59:31.733Z,71.89
2019-04-20T01:02:03.948Z,71.58
2019-04-20T01:04:38.832Z,72.25
2019-04-20T01:06:57.635Z,72.89
2019-04-20T01:09:14.158Z,73.53
2019-04-20T01:11:46.472Z,70.80
2019-04-20T01:14:14.092Z,73.84
2019-04-20T01:16:47.371Z,72.26
2019-04-20T01:19:07.697Z,71.51
2019-04-20T01:21:36.855Z,72.12
2019-04-20T01:24:07.941Z,71.58
2019-04-20T01:26:35.602Z,73.38
2019-04-20T01:29:13.563Z,73.74
2019-04-20T01:31:38.367Z,71.75
2019-04-20T01:34:09.504Z,72.92
2019-04-20T01:36:47.958Z,72.96
2019-04-20T01:39:07.550Z,75.42
2019-04-20T01:41:26.423Z,74.30
2019-04-20T01:43:54.375Z,74.16
2019-04-20T01:48:59.978Z,72.35
2019-04-20T01:51:30.505Z,74.01
2019-04-20T01:54:13.517Z,75.98
2019-04-20T01:56:37.399Z,75.98
2019-04-20T01:59:10.727Z,77.50
2019-04-20T02:01:27.180Z,78.08
2019-04-20T02:03:55.803Z,79.50
2019-04-20T02:06:24.972Z,77.64
2019-04-20T02:08:58.343Z,76.93
2019-04-20T02:11:26.004Z,76.61
2019-04-20T02:13:55.143Z,76.82
2019-04-20T02:16:26.427Z,78.08
2019-04-20T02:21:34.180Z,77.88
2019-04-20T02:23:53.077Z,79.01
2019-04-20T02:26:16.061Z,79.73
2019-04-20T02:29:12.225Z,77.14
2019-04-20T02:31:57.813Z,74.63
2019-04-20T02:41:23.625Z,79.98
2019-04-20T02:43:57.656Z,79.41
2019-04-20T02:46:10.596Z,79.52
2019-04-20T02:48:43.348Z,81.98
2019-04-20T02:51:08.999Z,81.30
2019-04-20T02:53:46.926Z,81.32
2019-04-20T02:56:29.686Z,75.92
2019-04-20T02:58:33.796Z,77.71
2019-04-20T03:00:55.187Z,77.93
2019-04-20T03:03:16.345Z,82.19
2019-04-20T03:05:40.604Z,82.53
2019-04-20T03:08:20.267Z,81.83
2019-04-20T03:13:18.541Z,77.14
2019-04-20T03:15:48.342Z,78.38
2019-04-20T03:18:14.586Z,79.18
2019-04-20T03:20:46.618Z,79.83
2019-04-20T03:28:47.063Z,80.92
2019-04-20T03:31:47.350Z,81.24
2019-04-20T03:34:15.660Z,79.68
2019-04-20T03:36:25.531Z,80.66
2019-04-20T03:38:41.669Z,78.92
2019-04-20T03:41:03.982Z,81.46
2019-04-20T03:43:20.494Z,82.33
2019-04-20T03:45:57.266Z,82.46
2019-04-20T03:48:38.133Z,79.62
2019-04-20T03:51:08.701Z,82.56
2019-04-20T03:53:34.312Z,77.50
2019-04-20T03:59:00.051Z,81.56
2019-04-20T04:01:43.396Z,80.91
2019-04-20T04:04:05.146Z,80.38
2019-04-20T04:06:19.833Z,77.94
2019-04-20T04:08:42.638Z,80.46
2019-04-20T04:11:21.000Z,82.73
2019-04-20T04:13:33.591Z,79.80
2019-04-20T04:16:06.707Z,81.94
2019-04-20T04:18:37.203Z,77.42
2019-04-20T04:21:03.913Z,80.67
2019-04-20T04:23:47.377Z,80.96
2019-04-20T04:26:15.007Z,82.88
2019-04-20T04:28:42.318Z,84.87
2019-04-20T04:31:12.794Z,85.09
2019-04-20T04:36:05.857Z,81.38
2019-04-20T04:38:42.494Z,81.95
2019-04-20T04:43:40.108Z,82.27
2019-04-20T04:45:49.025Z,84.78
2019-04-20T04:48:23.805Z,81.97
2019-04-20T04:50:53.823Z,84.02
2019-04-20T04:53:28.902Z,79.46
2019-04-20T04:55:52.402Z,81.94
2019-04-20T04:58:10.876Z,81.67
2019-04-20T05:00:40.729Z,84.41
2019-04-20T05:06:03.559Z,83.70
2019-04-20T05:08:21.275Z,80.27
2019-04-20T05:13:13.648Z,77.02
2019-04-20T05:15:57.069Z,79.08
2019-04-20T05:18:34.658Z,78.61
2019-04-20T05:20:58.882Z,80.01
2019-04-20T05:23:35.324Z,78.08
2019-04-20T05:26:14.087Z,78.80
2019-04-20T05:28:30.895Z,77.93
2019-04-20T05:30:53.745Z,77.48
2019-04-20T05:33:28.094Z,80.71
2019-04-20T05:39:02.525Z,80.83
2019-04-20T05:41:14.872Z,79.79
2019-04-20T05:46:18.508Z,77.03
2019-04-20T05:48:48.746Z,76.08
2019-04-20T05:53:45.752Z,78.47
2019-04-20T05:56:10.352Z,78.73
2019-04-20T05:58:38.672Z,79.12
2019-04-20T06:01:12.186Z,79.54
2019-04-20T06:03:38.388Z,78.51
2019-04-20T06:06:08.070Z,78.62
2019-04-20T06:08:45.324Z,77.08
2019-04-20T06:11:04.524Z,77.15
2019-04-20T06:16:07.331Z,73.68
2019-04-20T06:18:34.802Z,74.86
2019-04-20T06:21:13.653Z,73.59
2019-04-20T06:32:17.514Z,66.12
2019-04-20T06:34:48.977Z,64.08
2019-04-20T06:37:02.069Z,61.41
2019-04-20T06:44:32.028Z,57.58
2019-04-20T06:47:02.781Z,58.82
2019-04-20T06:52:24.378Z,56.82
2019-04-20T06:54:52.417Z,56.15
2019-04-20T06:57:19.642Z,57.32
2019-04-20T06:59:45.871Z,57.93
2019-04-20T07:12:11.380Z,54.54
2019-04-20T07:14:36.679Z,53.64
2019-04-20T07:17:27.372Z,54.17
2019-04-20T07:19:40.528Z,52.73
2019-04-20T07:22:25.362Z,49.17
2019-04-20T07:27:17.860Z,49.12
2019-04-20T07:29:54.931Z,50.67
2019-04-20T07:32:11.718Z,49.74
2019-04-20T07:34:47.461Z,47.79
2019-04-20T07:42:23.046Z,48.90
2019-04-20T07:44:55.224Z,48.91
2019-04-20T07:47:22.079Z,47.04
2019-04-20T07:49:45.675Z,45.84
2019-04-20T07:51:55.556Z,45.33
2019-04-20T07:54:50.815Z,47.19
2019-04-20T07:57:12.789Z,46.06
2019-04-20T08:04:47.106Z,46.91
2019-04-20T08:07:03.508Z,45.61
2019-04-20T08:09:35.012Z,42.98
2019-04-20T08:12:22.074Z,42.16
2019-04-20T08:14:46.753Z,44.62
2019-04-20T08:17:21.468Z,44.56
2019-04-20T08:19:43.918Z,42.88
2019-04-20T08:22:18.551Z,43.71
2019-04-20T08:24:34.496Z,44.69
2019-04-20T08:26:55.159Z,43.59
2019-04-20T08:35:05.124Z,42.06
2019-04-20T08:37:34.413Z,41.46
2019-04-20T08:40:06.823Z,40.36
2019-04-20T08:42:40.425Z,41.21
2019-04-20T08:45:03.653Z,38.66
2019-04-20T08:47:37.813Z,40.84
2019-04-20T08:55:10.490Z,40.08
2019-04-20T08:57:20.011Z,38.11
2019-04-20T08:59:50.657Z,38.93
2019-04-20T09:02:17.437Z,34.12
2019-04-20T09:04:52.874Z,32.48
2019-04-20T09:07:18.599Z,31.95
2019-04-20T09:10:10.036Z,32.65
2019-04-20T09:12:26.549Z,29.16
2019-04-20T09:17:24.443Z,28.65
2019-04-20T09:19:50.307Z,27.06
2019-04-20T09:22:28.085Z,26.16
2019-04-20T09:25:13.096Z,27.41
2019-04-20T09:30:06.172Z,28.64
2019-04-20T09:32:43.973Z,26.18
2019-04-20T09:35:22.202Z,23.54
2019-04-20T09:37:47.324Z,21.99
2019-04-20T09:40:21.612Z,24.21
2019-04-20T09:42:37.995Z,23.73
2019-04-20T09:45:08.280Z,24.82
2019-04-20T09:47:42.944Z,22.09
2019-04-20T09:50:21.380Z,21.31
2019-04-20T09:52:51.450Z,20.89
2019-04-20T09:55:16.292Z,20.86
2019-04-20T09:57:50.313Z,25.39
2019-04-20T10:02:34.982Z,22.99
2019-04-20T10:05:01.999Z,24.12
2019-04-20T10:10:15.955Z,19.47
2019-04-20T10:12:35.536Z,21.19
2019-04-20T10:15:11.635Z,21.06
2019-04-20T10:17:33.250Z,19.33
2019-04-20T10:20:02.553Z,20.14
2019-04-20T10:22:28.722Z,19.20
2019-04-20T10:24:57.277Z,16.87
2019-04-20T10:30:02.920Z,20.33
2019-04-20T10:32:36.262Z,18.76
2019-04-20T10:34:56.865Z,19.29
2019-04-20T10:37:25.012Z,19.73
2019-04-20T10:39:54.430Z,17.51
2019-04-20T10:42:21.884Z,17.07
2019-04-20T10:44:53.791Z,19.64
2019-04-20T10:47:21.171Z,19.68
2019-04-20T10:49:49.452Z,17.37
2019-04-20T10:52:17.923Z,15.94
2019-04-20T10:54:46.296Z,17.45
2019-04-20T10:57:15.497Z,17.15
2019-04-20T10:59:43.678Z,15.78
2019-04-20T11:02:12.088Z,15.97
2019-04-20T11:04:40.907Z,15.35
2019-04-20T11:07:08.331Z,15.91
2019-04-20T11:09:36.697Z,16.08
2019-04-20T11:12:06.349Z,17.08
2019-04-20T11:14:37.223Z,17.44
2019-04-20T11:17:02.638Z,16.63
2019-04-20T11:19:31.533Z,16.88
2019-04-20T11:21:58.688Z,15.92
2019-04-20T11:24:28.136Z,16.91
2019-04-20T11:29:31.893Z,17.47
2019-04-20T11:34:38.376Z,18.09
2019-04-20T11:37:03.297Z,17.25
2019-04-20T11:39:30.282Z,15.57
2019-04-20T11:41:59.480Z,17.04
2019-04-20T11:44:30.289Z,17.32
2019-04-20T11:49:33.361Z,17.77
2019-04-20T11:54:36.585Z,16.87
2019-04-20T11:57:04.159Z,15.65
2019-04-20T11:59:32.784Z,16.21
2019-04-20T12:02:05.513Z,16.87
2019-04-20T12:04:42.022Z,15.21
2019-04-20T12:07:02.948Z,14.93
2019-04-20T12:09:31.431Z,15.16
2019-04-20T12:12:11.888Z,15.29
2019-04-20T12:14:28.451Z,15.83
2019-04-20T12:16:57.620Z,14.24
2019-04-20T12:19:26.917Z,15.95
2019-04-20T12:21:54.128Z,14.09
2019-04-20T12:24:22.695Z,14.30
2019-04-20T12:26:51.101Z,13.94
2019-04-20T12:29:19.536Z,13.98
2019-04-20T12:31:51.058Z,14.50
2019-04-20T12:34:16.225Z,14.08
2019-04-20T12:39:19.297Z,14.44
2019-04-20T12:41:52.991Z,15.26
2019-04-20T12:44:15.570Z,13.59
2019-04-20T12:49:18.267Z,13.82
2019-04-20T12:51:53.962Z,14.34
2019-04-20T12:54:14.960Z,15.06
2019-04-20T12:56:44.554Z,15.31
2019-04-20T12:59:13.814Z,14.33
2019-04-20T13:01:41.510Z,14.21
2019-04-20T13:04:09.624Z,13.55
2019-04-20T13:09:16.677Z,12.70
2019-04-20T13:11:54.666Z,13.49
2019-04-20T13:17:22.056Z,13.71
2019-04-20T13:19:50.975Z,12.84
2019-04-20T13:22:19.032Z,13.60
2019-04-20T13:24:47.271Z,13.14
2019-04-20T13:27:15.027Z,13.96
2019-04-20T13:29:46.195Z,14.25
2019-04-20T13:32:11.840Z,15.88
2019-04-20T13:34:40.516Z,16.59
2019-04-20T13:37:08.928Z,14.21
2019-04-20T13:39:38.441Z,13.43
2019-04-20T13:42:12.054Z,14.89
2019-04-20T13:44:34.915Z,13.60
2019-04-20T13:47:03.092Z,13.87
2019-04-20T13:49:31.257Z,12.54
2019-04-20T13:51:59.544Z,12.39
2019-04-20T13:54:28.596Z,13.22
2019-04-20T13:56:56.611Z,12.83
2019-04-20T13:59:25.818Z,14.62
2019-04-20T14:07:03.694Z,15.63
2019-04-20T14:09:33.244Z,15.25
2019-04-20T14:12:11.785Z,14.86
2019-04-20T14:14:29.028Z,14.43
2019-04-20T14:16:57.121Z,13.48
2019-04-20T14:19:25.504Z,13.60
2019-04-20T14:24:28.890Z,14.15
2019-04-20T14:26:56.969Z,13.23
2019-04-20T14:29:25.219Z,13.75
2019-04-20T14:31:53.410Z,14.08
2019-04-20T14:34:22.696Z,13.61
2019-04-20T14:36:51.221Z,13.99
2019-04-20T14:39:20.407Z,16.69
2019-04-20T14:41:48.654Z,17.74
2019-04-20T14:44:16.353Z,14.66
2019-04-20T14:46:45.555Z,13.42
2019-04-20T14:49:14.607Z,13.15
2019-04-20T14:51:41.710Z,12.74
2019-04-20T14:54:09.974Z,14.64
2019-04-20T14:56:38.393Z,15.45
2019-04-20T15:04:39.079Z,15.03
2019-04-20T15:07:07.140Z,14.82
2019-04-20T15:09:37.536Z,14.21
2019-04-20T15:12:04.561Z,13.14
2019-04-20T15:14:32.437Z,12.45
2019-04-20T15:17:00.694Z,11.89
2019-04-20T15:25:00.198Z,12.59
2019-04-20T15:27:28.552Z,12.91
2019-04-20T15:29:58.113Z,12.87
2019-04-20T15:32:25.304Z,13.53
2019-04-20T15:34:55.002Z,13.00
2019-04-20T15:39:59.039Z,12.13
2019-04-20T15:42:27.615Z,12.41
2019-04-20T15:44:57.596Z,12.31
2019-04-20T15:47:25.719Z,12.15
2019-04-20T15:49:53.788Z,11.99
2019-04-20T15:52:25.933Z,11.69
2019-04-20T15:54:51.806Z,11.52
2019-04-20T15:57:23.277Z,13.74
2019-04-20T15:59:48.639Z,12.08
2019-04-20T16:04:56.486Z,11.91
2019-04-20T16:07:25.415Z,12.39
2019-04-20T16:09:52.292Z,12.51
2019-04-20T16:12:20.885Z,15.08
2019-04-20T16:14:49.385Z,15.36
2019-04-20T16:17:17.518Z,15.76
2019-04-20T16:19:52.223Z,16.23
2019-04-20T16:22:15.401Z,17.25
2019-04-20T16:27:37.912Z,18.46
2019-04-20T16:30:05.533Z,18.21
2019-04-20T16:32:34.398Z,18.86
2019-04-20T16:40:15.765Z,18.87
2019-04-20T16:42:45.469Z,19.01
2019-04-20T16:45:13.429Z,20.37
2019-04-20T16:47:42.373Z,20.55
2019-04-20T16:50:11.028Z,20.75
2019-04-20T16:52:39.137Z,20.14
2019-04-20T16:55:08.211Z,20.96
2019-04-20T16:57:35.800Z,22.41
2019-04-20T17:00:05.461Z,21.07
2019-04-20T17:05:09.205Z,22.17
2019-04-20T17:07:39.301Z,23.95
2019-04-20T17:10:07.490Z,22.77
2019-04-20T17:12:35.647Z,22.61
2019-04-20T17:17:37.989Z,22.83
2019-04-20T17:22:42.688Z,22.73
2019-04-20T17:25:12.297Z,23.63
2019-04-20T17:27:45.018Z,22.82
2019-04-20T17:30:21.910Z,22.95
2019-04-20T17:32:47.556Z,23.38
2019-04-20T17:35:28.247Z,23.24
2019-04-20T17:45:41.574Z,25.25
2019-04-20T17:48:08.829Z,25.20
2019-04-20T17:50:46.445Z,24.83
2019-04-20T17:53:08.974Z,24.95
2019-04-20T17:58:12.066Z,26.76
2019-04-20T18:00:54.799Z,25.89
2019-04-20T18:03:57.537Z,27.12
2019-04-20T18:06:15.092Z,27.29
2019-04-20T18:08:35.886Z,26.61
2019-04-20T18:10:58.588Z,27.96
2019-04-20T18:13:21.660Z,26.84
2019-04-20T18:15:59.005Z,26.90
2019-04-20T18:21:03.586Z,27.96
2019-04-20T18:26:28.763Z,27.63
2019-04-20T18:31:13.376Z,28.37
2019-04-20T18:33:40.504Z,29.15
2019-04-20T18:36:13.321Z,29.62
2019-04-20T18:41:20.989Z,30.71
2019-04-20T18:43:45.845Z,31.44
2019-04-20T18:46:26.121Z,32.07
2019-04-20T18:51:12.493Z,32.37
2019-04-20T18:53:43.310Z,32.94
2019-04-20T18:56:09.557Z,32.41
2019-04-20T18:58:37.611Z,35.61
2019-04-20T19:01:07.425Z,33.11
2019-04-20T19:03:40.646Z,35.95
2019-04-20T19:06:06.024Z,35.13
2019-04-20T19:08:39.483Z,37.48
2019-04-20T19:11:06.941Z,38.74
2019-04-20T19:13:36.721Z,37.44
2019-04-20T19:16:13.377Z,37.33
2019-04-20T19:21:07.017Z,38.17
2019-04-20T19:23:37.245Z,40.06
2019-04-20T19:26:09.589Z,40.99
2019-04-20T19:28:41.050Z,41.16
2019-04-20T19:33:57.559Z,39.10
2019-04-20T19:36:18.757Z,41.82
2019-04-20T19:38:45.583Z,40.86
2019-04-20T19:43:48.319Z,41.13
2019-04-20T19:48:49.434Z,41.68
2019-04-20T19:51:28.394Z,39.86
2019-04-20T19:56:28.133Z,41.28
2019-04-20T19:58:54.179Z,41.63
2019-04-20T20:01:06.758Z,41.93
2019-04-20T20:03:35.551Z,43.71
2019-04-20T20:06:03.915Z,43.35
2019-04-20T20:08:36.381Z,44.13
2019-04-20T20:11:03.630Z,44.10
2019-04-20T20:13:36.251Z,46.20
2019-04-20T20:16:07.352Z,47.79
2019-04-20T20:18:39.226Z,44.08
2019-04-20T20:21:08.684Z,45.25
2019-04-20T20:23:23.938Z,46.44
2019-04-20T20:25:53.194Z,46.18
2019-04-20T20:28:31.265Z,45.39
2019-04-20T20:31:02.174Z,47.35
2019-04-20T20:33:37.933Z,47.96
2019-04-20T20:35:55.504Z,47.74
2019-04-20T20:38:23.107Z,45.05
2019-04-20T20:40:56.387Z,47.33
2019-04-20T20:43:22.183Z,46.38
2019-04-20T20:45:49.702Z,47.50
2019-04-20T20:48:24.115Z,48.13
2019-04-20T20:50:56.126Z,49.00
2019-04-20T20:53:14.223Z,48.16
2019-04-20T20:55:40.894Z,49.11
2019-04-20T20:58:10.617Z,45.18
2019-04-20T21:00:41.795Z,48.24
2019-04-20T21:05:33.462Z,48.68
2019-04-20T21:08:01.656Z,48.53
2019-04-20T21:10:35.578Z,50.12
2019-04-20T21:13:03.019Z,48.78
2019-04-20T21:18:20.595Z,48.56
2019-04-20T21:20:50.575Z,48.65
2019-04-20T21:23:53.381Z,48.49
2019-04-20T21:26:18.026Z,47.78
2019-04-20T21:28:40.112Z,49.08
2019-04-20T21:31:13.704Z,49.16
2019-04-20T21:33:39.700Z,49.20
2019-04-20T21:36:05.062Z,50.40
2019-04-20T21:38:37.602Z,49.51
2019-04-20T21:41:08.808Z,49.11
2019-04-20T21:43:36.651Z,50.96
2019-04-20T21:46:03.253Z,49.12
2019-04-20T21:48:45.164Z,50.25
2019-04-20T21:51:13.993Z,51.64
2019-04-20T21:53:31.363Z,50.76
2019-04-20T21:55:55.230Z,50.60
2019-04-20T21:58:28.041Z,48.14
2019-04-20T22:01:05.052Z,51.67
2019-04-20T22:03:22.636Z,49.93
2019-04-20T22:05:50.561Z,53.05
2019-04-20T22:08:19.568Z,54.16
2019-04-20T22:10:47.240Z,54.74
2019-04-20T22:13:26.746Z,54.80
2019-04-20T22:15:56.737Z,52.75
2019-04-20T22:18:23.037Z,56.25
2019-04-20T22:20:57.676Z,56.25
2019-04-20T22:23:32.922Z,55.31
2019-04-20T22:25:58.322Z,57.89
2019-04-20T22:28:11.986Z,57.67
2019-04-20T22:30:40.172Z,56.67
2019-04-20T22:33:10.053Z,57.66
2019-04-20T22:35:44.553Z,58.17
2019-04-20T22:41:06.619Z,61.25
2019-04-20T22:43:35.167Z,59.03
2019-04-20T22:45:59.228Z,61.46
2019-04-20T22:48:27.535Z,56.95
2019-04-20T22:53:45.574Z,60.97
2019-04-20T22:56:22.818Z,61.70
2019-04-20T22:58:40.517Z,60.90
2019-04-20T23:01:01.020Z,61.47
2019-04-20T23:03:24.967Z,61.55
2019-04-20T23:05:54.365Z,62.52
2019-04-20T23:08:22.418Z,61.73
2019-04-20T23:10:49.848Z,62.17
2019-04-20T23:13:22.103Z,60.50
2019-04-20T23:15:53.118Z,60.81
2019-04-20T23:18:16.042Z,62.72
2019-04-20T23:20:44.267Z,59.70
2019-04-20T23:23:16.943Z,60.85
2019-04-20T23:28:18.103Z,63.44
2019-04-20T23:30:44.452Z,63.38
2019-04-20T23:35:49.898Z,64.36
2019-04-20T23:38:19.155Z,62.73
2019-04-20T23:40:43.743Z,61.99
2019-04-20T23:48:44.765Z,59.87
2019-04-20T23:53:56.511Z,61.46
2019-04-20T23:56:18.385Z,60.87
2019-04-20T23:58:49.594Z,63.28
